sensor_id;sensor_type;location;lat;lon;timestamp;P1;durP1;ratioP1;P2;durP2;ratioP2
42754;SDS011;28407;51.830;5.684;2023-12-04T00:00:07;14.85;;;10.15;;
42754;SDS011;28407;51.830;5.684;2023-12-04T00:02:14;16.75;;;10.50;;
42754;SDS011;28407;51.830;5.684;2023-12-04T00:04:15;17.13;;;12.00;;
42754;SDS011;28407;51.830;5.684;2023-12-04T00:06:15;14.57;;;10.13;;
42754;SDS011;28407;51.830;5.684;2023-12-04T00:08:16;13.77;;;10.23;;
42754;SDS011;28407;51.830;5.684;2023-12-04T00:10:17;12.52;;;9.55;;
42754;SDS011;28407;51.830;5.684;2023-12-04T00:12:17;16.98;;;12.00;;
42754;SDS011;28407;51.830;5.684;2023-12-04T00:14:18;11.55;;;8.20;;
42754;SDS011;28407;51.830;5.684;2023-12-04T00:16:19;14.05;;;9.30;;
42754;SDS011;28407;51.830;5.684;2023-12-04T00:18:20;13.25;;;10.20;;
42754;SDS011;28407;51.830;5.684;2023-12-04T00:20:20;15.70;;;9.15;;
42754;SDS011;28407;51.830;5.684;2023-12-04T00:22:21;15.02;;;9.65;;
42754;SDS011;28407;51.830;5.684;2023-12-04T00:24:22;14.90;;;10.02;;
42754;SDS011;28407;51.830;5.684;2023-12-04T00:26:22;13.68;;;9.55;;
42754;SDS011;28407;51.830;5.684;2023-12-04T00:28:26;12.18;;;8.70;;
42754;SDS011;28407;51.830;5.684;2023-12-04T00:30:28;16.95;;;11.45;;
42754;SDS011;28407;51.830;5.684;2023-12-04T00:32:32;15.13;;;10.65;;
42754;SDS011;28407;51.830;5.684;2023-12-04T00:34:33;15.13;;;10.25;;
42754;SDS011;28407;51.830;5.684;2023-12-04T00:36:34;15.02;;;10.82;;
42754;SDS011;28407;51.830;5.684;2023-12-04T00:38:34;18.45;;;12.82;;
42754;SDS011;28407;51.830;5.684;2023-12-04T00:40:35;15.60;;;11.45;;
42754;SDS011;28407;51.830;5.684;2023-12-04T00:42:36;12.95;;;9.52;;
42754;SDS011;28407;51.830;5.684;2023-12-04T00:44:36;16.08;;;9.40;;
42754;SDS011;28407;51.830;5.684;2023-12-04T00:46:37;13.82;;;9.73;;
42754;SDS011;28407;51.830;5.684;2023-12-04T00:48:38;12.02;;;8.40;;
42754;SDS011;28407;51.830;5.684;2023-12-04T00:50:38;14.00;;;9.95;;
42754;SDS011;28407;51.830;5.684;2023-12-04T00:52:39;12.32;;;9.52;;
42754;SDS011;28407;51.830;5.684;2023-12-04T00:54:40;11.88;;;9.65;;
42754;SDS011;28407;51.830;5.684;2023-12-04T00:56:43;14.13;;;9.25;;
42754;SDS011;28407;51.830;5.684;2023-12-04T00:58:44;14.07;;;9.82;;
42754;SDS011;28407;51.830;5.684;2023-12-04T01:00:44;14.82;;;10.63;;
42754;SDS011;28407;51.830;5.684;2023-12-04T01:02:45;13.32;;;9.57;;
42754;SDS011;28407;51.830;5.684;2023-12-04T01:04:46;14.18;;;10.40;;
42754;SDS011;28407;51.830;5.684;2023-12-04T01:06:46;13.35;;;10.75;;
42754;SDS011;28407;51.830;5.684;2023-12-04T01:08:47;12.43;;;8.55;;
42754;SDS011;28407;51.830;5.684;2023-12-04T01:10:48;14.60;;;9.70;;
42754;SDS011;28407;51.830;5.684;2023-12-04T01:12:48;14.90;;;9.20;;
42754;SDS011;28407;51.830;5.684;2023-12-04T01:14:49;11.75;;;9.23;;
42754;SDS011;28407;51.830;5.684;2023-12-04T01:16:50;14.63;;;9.60;;
42754;SDS011;28407;51.830;5.684;2023-12-04T01:18:50;12.98;;;9.93;;
42754;SDS011;28407;51.830;5.684;2023-12-04T01:20:51;16.00;;;9.48;;
42754;SDS011;28407;51.830;5.684;2023-12-04T01:22:52;13.15;;;10.80;;
42754;SDS011;28407;51.830;5.684;2023-12-04T01:24:52;14.82;;;10.00;;
42754;SDS011;28407;51.830;5.684;2023-12-04T01:26:53;11.93;;;8.75;;
42754;SDS011;28407;51.830;5.684;2023-12-04T01:28:54;12.50;;;9.77;;
42754;SDS011;28407;51.830;5.684;2023-12-04T01:30:54;12.68;;;9.70;;
42754;SDS011;28407;51.830;5.684;2023-12-04T01:32:55;10.57;;;9.15;;
42754;SDS011;28407;51.830;5.684;2023-12-04T01:34:56;12.95;;;9.18;;
42754;SDS011;28407;51.830;5.684;2023-12-04T01:36:56;12.95;;;8.65;;
42754;SDS011;28407;51.830;5.684;2023-12-04T01:38:57;13.23;;;9.10;;
42754;SDS011;28407;51.830;5.684;2023-12-04T01:40:58;13.65;;;10.15;;
42754;SDS011;28407;51.830;5.684;2023-12-04T01:42:58;14.02;;;10.90;;
42754;SDS011;28407;51.830;5.684;2023-12-04T01:44:59;15.25;;;10.85;;
42754;SDS011;28407;51.830;5.684;2023-12-04T01:47:00;15.75;;;11.30;;
42754;SDS011;28407;51.830;5.684;2023-12-04T01:49:01;13.27;;;10.38;;
42754;SDS011;28407;51.830;5.684;2023-12-04T01:53:06;13.95;;;8.70;;
42754;SDS011;28407;51.830;5.684;2023-12-04T01:55:07;14.45;;;10.30;;
42754;SDS011;28407;51.830;5.684;2023-12-04T01:57:09;14.50;;;9.23;;
42754;SDS011;28407;51.830;5.684;2023-12-04T01:59:11;12.98;;;8.80;;
42754;SDS011;28407;51.830;5.684;2023-12-04T02:01:12;12.15;;;9.52;;
42754;SDS011;28407;51.830;5.684;2023-12-04T02:03:13;10.40;;;8.00;;
42754;SDS011;28407;51.830;5.684;2023-12-04T02:05:14;11.10;;;9.48;;
42754;SDS011;28407;51.830;5.684;2023-12-04T02:09:16;11.30;;;8.30;;
42754;SDS011;28407;51.830;5.684;2023-12-04T02:11:18;11.13;;;8.48;;
42754;SDS011;28407;51.830;5.684;2023-12-04T02:13:19;11.13;;;8.90;;
42754;SDS011;28407;51.830;5.684;2023-12-04T02:15:20;14.57;;;10.13;;
42754;SDS011;28407;51.830;5.684;2023-12-04T02:17:21;14.43;;;9.93;;
42754;SDS011;28407;51.830;5.684;2023-12-04T02:19:23;14.77;;;9.55;;
42754;SDS011;28407;51.830;5.684;2023-12-04T02:23:25;11.32;;;8.45;;
42754;SDS011;28407;51.830;5.684;2023-12-04T02:25:26;10.95;;;7.57;;
42754;SDS011;28407;51.830;5.684;2023-12-04T02:27:49;8.90;;;8.00;;
42754;SDS011;28407;51.830;5.684;2023-12-04T02:29:52;15.15;;;9.50;;
42754;SDS011;28407;51.830;5.684;2023-12-04T02:31:59;14.80;;;8.90;;
42754;SDS011;28407;51.830;5.684;2023-12-04T02:34:02;15.23;;;9.68;;
42754;SDS011;28407;51.830;5.684;2023-12-04T02:36:06;12.48;;;9.00;;
42754;SDS011;28407;51.830;5.684;2023-12-04T02:38:08;12.80;;;9.88;;
42754;SDS011;28407;51.830;5.684;2023-12-04T02:40:10;14.23;;;10.00;;
42754;SDS011;28407;51.830;5.684;2023-12-04T02:42:12;12.68;;;9.35;;
42754;SDS011;28407;51.830;5.684;2023-12-04T02:44:14;12.20;;;9.00;;
42754;SDS011;28407;51.830;5.684;2023-12-04T02:46:14;11.48;;;8.65;;
42754;SDS011;28407;51.830;5.684;2023-12-04T02:48:15;13.45;;;8.57;;
42754;SDS011;28407;51.830;5.684;2023-12-04T02:50:16;11.90;;;8.48;;
42754;SDS011;28407;51.830;5.684;2023-12-04T02:52:16;11.80;;;8.73;;
42754;SDS011;28407;51.830;5.684;2023-12-04T02:54:17;13.82;;;9.15;;
42754;SDS011;28407;51.830;5.684;2023-12-04T02:56:18;13.10;;;9.68;;
42754;SDS011;28407;51.830;5.684;2023-12-04T02:58:19;13.88;;;10.05;;
42754;SDS011;28407;51.830;5.684;2023-12-04T03:00:19;11.77;;;8.15;;
42754;SDS011;28407;51.830;5.684;2023-12-04T03:02:23;12.07;;;7.90;;
42754;SDS011;28407;51.830;5.684;2023-12-04T03:04:24;11.93;;;9.18;;
42754;SDS011;28407;51.830;5.684;2023-12-04T03:06:24;11.55;;;8.88;;
42754;SDS011;28407;51.830;5.684;2023-12-04T03:08:25;12.18;;;9.02;;
42754;SDS011;28407;51.830;5.684;2023-12-04T03:10:26;12.30;;;9.75;;
42754;SDS011;28407;51.830;5.684;2023-12-04T03:12:26;11.30;;;8.23;;
42754;SDS011;28407;51.830;5.684;2023-12-04T03:14:28;9.88;;;7.35;;
42754;SDS011;28407;51.830;5.684;2023-12-04T03:16:28;13.57;;;9.07;;
42754;SDS011;28407;51.830;5.684;2023-12-04T03:18:29;11.18;;;8.70;;
42754;SDS011;28407;51.830;5.684;2023-12-04T03:20:31;13.73;;;8.55;;
42754;SDS011;28407;51.830;5.684;2023-12-04T03:22:33;12.52;;;8.60;;
42754;SDS011;28407;51.830;5.684;2023-12-04T03:24:35;13.50;;;10.85;;
42754;SDS011;28407;51.830;5.684;2023-12-04T03:26:36;13.73;;;10.02;;
42754;SDS011;28407;51.830;5.684;2023-12-04T03:28:37;13.90;;;8.73;;
42754;SDS011;28407;51.830;5.684;2023-12-04T03:30:40;13.38;;;8.52;;
42754;SDS011;28407;51.830;5.684;2023-12-04T03:32:40;12.02;;;8.82;;
42754;SDS011;28407;51.830;5.684;2023-12-04T03:34:41;12.15;;;8.77;;
42754;SDS011;28407;51.830;5.684;2023-12-04T03:36:42;12.40;;;8.55;;
42754;SDS011;28407;51.830;5.684;2023-12-04T03:38:43;10.20;;;8.82;;
42754;SDS011;28407;51.830;5.684;2023-12-04T03:40:43;11.70;;;8.50;;
42754;SDS011;28407;51.830;5.684;2023-12-04T03:42:44;11.63;;;8.38;;
42754;SDS011;28407;51.830;5.684;2023-12-04T03:44:45;11.48;;;8.50;;
42754;SDS011;28407;51.830;5.684;2023-12-04T03:46:45;13.52;;;10.02;;
42754;SDS011;28407;51.830;5.684;2023-12-04T03:48:46;11.45;;;8.93;;
42754;SDS011;28407;51.830;5.684;2023-12-04T03:50:47;15.65;;;9.73;;
42754;SDS011;28407;51.830;5.684;2023-12-04T03:52:47;16.42;;;9.05;;
42754;SDS011;28407;51.830;5.684;2023-12-04T03:54:48;16.38;;;11.52;;
42754;SDS011;28407;51.830;5.684;2023-12-04T03:56:49;10.20;;;8.60;;
42754;SDS011;28407;51.830;5.684;2023-12-04T03:58:49;12.80;;;7.43;;
42754;SDS011;28407;51.830;5.684;2023-12-04T04:00:50;13.93;;;9.57;;
42754;SDS011;28407;51.830;5.684;2023-12-04T04:02:51;11.02;;;7.78;;
42754;SDS011;28407;51.830;5.684;2023-12-04T04:04:51;12.80;;;9.43;;
42754;SDS011;28407;51.830;5.684;2023-12-04T04:06:52;9.50;;;7.57;;
42754;SDS011;28407;51.830;5.684;2023-12-04T04:08:53;10.77;;;8.68;;
42754;SDS011;28407;51.830;5.684;2023-12-04T04:10:53;10.88;;;8.07;;
42754;SDS011;28407;51.830;5.684;2023-12-04T04:12:54;12.30;;;9.38;;
42754;SDS011;28407;51.830;5.684;2023-12-04T04:14:55;12.55;;;9.68;;
42754;SDS011;28407;51.830;5.684;2023-12-04T04:16:56;11.23;;;8.43;;
42754;SDS011;28407;51.830;5.684;2023-12-04T04:18:56;9.68;;;8.30;;
42754;SDS011;28407;51.830;5.684;2023-12-04T04:20:57;9.73;;;8.25;;
42754;SDS011;28407;51.830;5.684;2023-12-04T04:22:58;8.88;;;7.60;;
42754;SDS011;28407;51.830;5.684;2023-12-04T04:24:58;11.23;;;9.32;;
42754;SDS011;28407;51.830;5.684;2023-12-04T04:26:59;9.70;;;7.57;;
42754;SDS011;28407;51.830;5.684;2023-12-04T04:28:59;9.05;;;7.45;;
42754;SDS011;28407;51.830;5.684;2023-12-04T04:31:00;11.65;;;8.32;;
42754;SDS011;28407;51.830;5.684;2023-12-04T04:33:01;16.25;;;8.25;;
42754;SDS011;28407;51.830;5.684;2023-12-04T04:35:04;11.02;;;7.80;;
42754;SDS011;28407;51.830;5.684;2023-12-04T04:37:05;11.55;;;8.27;;
42754;SDS011;28407;51.830;5.684;2023-12-04T04:39:06;9.25;;;7.25;;
42754;SDS011;28407;51.830;5.684;2023-12-04T04:41:06;9.77;;;7.68;;
42754;SDS011;28407;51.830;5.684;2023-12-04T04:43:08;10.13;;;8.18;;
42754;SDS011;28407;51.830;5.684;2023-12-04T04:45:09;9.25;;;7.57;;
42754;SDS011;28407;51.830;5.684;2023-12-04T04:47:10;8.55;;;6.80;;
42754;SDS011;28407;51.830;5.684;2023-12-04T04:49:11;12.23;;;8.45;;
42754;SDS011;28407;51.830;5.684;2023-12-04T04:51:12;8.85;;;7.32;;
42754;SDS011;28407;51.830;5.684;2023-12-04T04:53:13;10.82;;;8.02;;
42754;SDS011;28407;51.830;5.684;2023-12-04T04:55:13;9.65;;;8.30;;
42754;SDS011;28407;51.830;5.684;2023-12-04T04:57:14;7.75;;;6.38;;
42754;SDS011;28407;51.830;5.684;2023-12-04T04:59:15;9.05;;;6.30;;
42754;SDS011;28407;51.830;5.684;2023-12-04T05:01:15;9.75;;;6.72;;
42754;SDS011;28407;51.830;5.684;2023-12-04T05:03:16;9.63;;;7.05;;
42754;SDS011;28407;51.830;5.684;2023-12-04T05:05:17;9.50;;;7.32;;
42754;SDS011;28407;51.830;5.684;2023-12-04T05:07:17;9.68;;;8.32;;
42754;SDS011;28407;51.830;5.684;2023-12-04T05:09:18;10.98;;;8.38;;
42754;SDS011;28407;51.830;5.684;2023-12-04T05:11:19;12.18;;;9.05;;
42754;SDS011;28407;51.830;5.684;2023-12-04T05:13:19;10.50;;;7.72;;
42754;SDS011;28407;51.830;5.684;2023-12-04T05:15:20;12.50;;;9.15;;
42754;SDS011;28407;51.830;5.684;2023-12-04T05:17:21;10.75;;;8.55;;
42754;SDS011;28407;51.830;5.684;2023-12-04T05:19:21;10.10;;;7.45;;
42754;SDS011;28407;51.830;5.684;2023-12-04T05:21:22;10.25;;;8.02;;
42754;SDS011;28407;51.830;5.684;2023-12-04T05:23:23;9.82;;;7.40;;
42754;SDS011;28407;51.830;5.684;2023-12-04T05:25:23;9.02;;;7.00;;
42754;SDS011;28407;51.830;5.684;2023-12-04T05:27:24;12.10;;;8.63;;
42754;SDS011;28407;51.830;5.684;2023-12-04T05:29:25;7.40;;;6.57;;
42754;SDS011;28407;51.830;5.684;2023-12-04T05:31:26;8.75;;;7.60;;
42754;SDS011;28407;51.830;5.684;2023-12-04T05:33:26;11.93;;;9.13;;
42754;SDS011;28407;51.830;5.684;2023-12-04T05:35:27;11.02;;;8.05;;
42754;SDS011;28407;51.830;5.684;2023-12-04T05:37:28;9.40;;;6.80;;
42754;SDS011;28407;51.830;5.684;2023-12-04T05:39:29;9.75;;;7.40;;
42754;SDS011;28407;51.830;5.684;2023-12-04T05:41:30;10.75;;;7.35;;
42754;SDS011;28407;51.830;5.684;2023-12-04T05:43:30;9.65;;;7.50;;
42754;SDS011;28407;51.830;5.684;2023-12-04T05:45:31;7.63;;;5.57;;
42754;SDS011;28407;51.830;5.684;2023-12-04T05:47:32;10.20;;;7.97;;
42754;SDS011;28407;51.830;5.684;2023-12-04T05:49:32;7.78;;;6.75;;
42754;SDS011;28407;51.830;5.684;2023-12-04T05:51:33;9.30;;;7.70;;
42754;SDS011;28407;51.830;5.684;2023-12-04T05:53:34;9.75;;;8.52;;
42754;SDS011;28407;51.830;5.684;2023-12-04T05:55:34;8.50;;;6.72;;
42754;SDS011;28407;51.830;5.684;2023-12-04T05:57:35;10.27;;;7.05;;
42754;SDS011;28407;51.830;5.684;2023-12-04T05:59:36;11.95;;;9.38;;
42754;SDS011;28407;51.830;5.684;2023-12-04T06:01:36;11.73;;;7.95;;
42754;SDS011;28407;51.830;5.684;2023-12-04T06:03:38;9.30;;;8.07;;
42754;SDS011;28407;51.830;5.684;2023-12-04T06:05:38;12.07;;;8.25;;
42754;SDS011;28407;51.830;5.684;2023-12-04T06:07:39;10.52;;;7.63;;
42754;SDS011;28407;51.830;5.684;2023-12-04T06:09:41;10.35;;;7.47;;
42754;SDS011;28407;51.830;5.684;2023-12-04T06:11:42;9.10;;;7.55;;
42754;SDS011;28407;51.830;5.684;2023-12-04T06:13:42;8.52;;;7.43;;
42754;SDS011;28407;51.830;5.684;2023-12-04T06:15:43;9.93;;;8.52;;
42754;SDS011;28407;51.830;5.684;2023-12-04T06:17:44;9.45;;;7.78;;
42754;SDS011;28407;51.830;5.684;2023-12-04T06:19:46;9.77;;;7.03;;
42754;SDS011;28407;51.830;5.684;2023-12-04T06:23:47;11.95;;;7.07;;
42754;SDS011;28407;51.830;5.684;2023-12-04T06:25:48;9.82;;;6.82;;
42754;SDS011;28407;51.830;5.684;2023-12-04T06:27:49;7.28;;;6.22;;
42754;SDS011;28407;51.830;5.684;2023-12-04T06:29:51;9.13;;;7.43;;
42754;SDS011;28407;51.830;5.684;2023-12-04T06:31:52;8.65;;;7.07;;
42754;SDS011;28407;51.830;5.684;2023-12-04T06:33:53;9.32;;;7.50;;
42754;SDS011;28407;51.830;5.684;2023-12-04T06:35:54;8.95;;;7.18;;
42754;SDS011;28407;51.830;5.684;2023-12-04T06:37:55;9.57;;;8.18;;
42754;SDS011;28407;51.830;5.684;2023-12-04T06:39:59;9.20;;;7.70;;
42754;SDS011;28407;51.830;5.684;2023-12-04T06:42:03;9.30;;;6.93;;
42754;SDS011;28407;51.830;5.684;2023-12-04T06:46:06;11.35;;;7.72;;
42754;SDS011;28407;51.830;5.684;2023-12-04T06:48:07;8.82;;;7.38;;
42754;SDS011;28407;51.830;5.684;2023-12-04T06:50:10;9.40;;;7.90;;
42754;SDS011;28407;51.830;5.684;2023-12-04T06:52:12;10.07;;;7.78;;
42754;SDS011;28407;51.830;5.684;2023-12-04T06:54:12;7.57;;;6.70;;
42754;SDS011;28407;51.830;5.684;2023-12-04T06:56:13;7.78;;;6.55;;
42754;SDS011;28407;51.830;5.684;2023-12-04T06:58:15;7.45;;;6.40;;
42754;SDS011;28407;51.830;5.684;2023-12-04T07:00:15;9.02;;;7.68;;
42754;SDS011;28407;51.830;5.684;2023-12-04T07:02:16;9.03;;;7.33;;
42754;SDS011;28407;51.830;5.684;2023-12-04T07:04:17;10.25;;;8.30;;
42754;SDS011;28407;51.830;5.684;2023-12-04T07:06:21;9.05;;;6.80;;
42754;SDS011;28407;51.830;5.684;2023-12-04T07:08:21;10.88;;;8.27;;
42754;SDS011;28407;51.830;5.684;2023-12-04T07:10:22;8.52;;;7.05;;
42754;SDS011;28407;51.830;5.684;2023-12-04T07:12:27;10.20;;;7.60;;
42754;SDS011;28407;51.830;5.684;2023-12-04T07:14:27;8.80;;;7.90;;
42754;SDS011;28407;51.830;5.684;2023-12-04T07:16:28;12.27;;;8.00;;
42754;SDS011;28407;51.830;5.684;2023-12-04T07:18:29;10.32;;;8.60;;
42754;SDS011;28407;51.830;5.684;2023-12-04T07:20:29;8.00;;;6.40;;
42754;SDS011;28407;51.830;5.684;2023-12-04T07:22:30;9.57;;;7.30;;
42754;SDS011;28407;51.830;5.684;2023-12-04T07:24:31;7.00;;;6.30;;
42754;SDS011;28407;51.830;5.684;2023-12-04T07:26:33;10.50;;;7.50;;
42754;SDS011;28407;51.830;5.684;2023-12-04T07:28:34;10.70;;;7.75;;
42754;SDS011;28407;51.830;5.684;2023-12-04T07:30:35;8.70;;;7.72;;
42754;SDS011;28407;51.830;5.684;2023-12-04T07:32:35;9.35;;;7.93;;
42754;SDS011;28407;51.830;5.684;2023-12-04T07:34:36;14.32;;;8.30;;
42754;SDS011;28407;51.830;5.684;2023-12-04T07:36:37;10.77;;;8.43;;
42754;SDS011;28407;51.830;5.684;2023-12-04T07:38:37;10.38;;;9.18;;
42754;SDS011;28407;51.830;5.684;2023-12-04T07:40:38;9.18;;;7.35;;
42754;SDS011;28407;51.830;5.684;2023-12-04T07:42:39;9.70;;;7.05;;
42754;SDS011;28407;51.830;5.684;2023-12-04T07:44:39;8.52;;;7.35;;
42754;SDS011;28407;51.830;5.684;2023-12-04T07:46:40;9.63;;;7.40;;
42754;SDS011;28407;51.830;5.684;2023-12-04T07:48:41;6.95;;;6.10;;
42754;SDS011;28407;51.830;5.684;2023-12-04T07:50:43;9.18;;;7.45;;
42754;SDS011;28407;51.830;5.684;2023-12-04T07:52:44;9.10;;;6.97;;
42754;SDS011;28407;51.830;5.684;2023-12-04T07:54:45;8.05;;;6.50;;
42754;SDS011;28407;51.830;5.684;2023-12-04T07:56:45;6.80;;;6.13;;
42754;SDS011;28407;51.830;5.684;2023-12-04T07:58:46;7.00;;;6.30;;
42754;SDS011;28407;51.830;5.684;2023-12-04T08:00:47;8.07;;;7.22;;
42754;SDS011;28407;51.830;5.684;2023-12-04T08:02:48;10.65;;;6.80;;
42754;SDS011;28407;51.830;5.684;2023-12-04T08:04:49;8.27;;;7.28;;
42754;SDS011;28407;51.830;5.684;2023-12-04T08:06:49;8.02;;;6.90;;
42754;SDS011;28407;51.830;5.684;2023-12-04T08:08:50;8.80;;;7.88;;
42754;SDS011;28407;51.830;5.684;2023-12-04T08:10:52;7.72;;;6.93;;
42754;SDS011;28407;51.830;5.684;2023-12-04T08:12:53;10.75;;;7.30;;
42754;SDS011;28407;51.830;5.684;2023-12-04T08:14:54;6.90;;;6.20;;
42754;SDS011;28407;51.830;5.684;2023-12-04T08:16:55;8.60;;;6.13;;
42754;SDS011;28407;51.830;5.684;2023-12-04T08:18:56;11.23;;;7.00;;
42754;SDS011;28407;51.830;5.684;2023-12-04T08:20:59;9.25;;;6.60;;
42754;SDS011;28407;51.830;5.684;2023-12-04T08:23:01;8.55;;;6.70;;
42754;SDS011;28407;51.830;5.684;2023-12-04T08:25:01;6.82;;;5.88;;
42754;SDS011;28407;51.830;5.684;2023-12-04T08:27:02;9.18;;;7.78;;
42754;SDS011;28407;51.830;5.684;2023-12-04T08:29:03;8.70;;;7.07;;
42754;SDS011;28407;51.830;5.684;2023-12-04T08:31:04;9.38;;;7.05;;
42754;SDS011;28407;51.830;5.684;2023-12-04T08:33:04;10.80;;;6.65;;
42754;SDS011;28407;51.830;5.684;2023-12-04T08:35:06;7.88;;;6.75;;
42754;SDS011;28407;51.830;5.684;2023-12-04T08:37:07;7.68;;;6.03;;
42754;SDS011;28407;51.830;5.684;2023-12-04T08:39:08;7.07;;;6.30;;
42754;SDS011;28407;51.830;5.684;2023-12-04T08:41:09;8.52;;;6.13;;
42754;SDS011;28407;51.830;5.684;2023-12-04T08:43:09;7.45;;;6.00;;
42754;SDS011;28407;51.830;5.684;2023-12-04T08:45:10;10.18;;;7.32;;
42754;SDS011;28407;51.830;5.684;2023-12-04T08:47:11;7.60;;;6.18;;
42754;SDS011;28407;51.830;5.684;2023-12-04T08:49:12;7.22;;;6.15;;
42754;SDS011;28407;51.830;5.684;2023-12-04T08:51:18;7.80;;;6.93;;
42754;SDS011;28407;51.830;5.684;2023-12-04T08:53:19;7.55;;;6.28;;
42754;SDS011;28407;51.830;5.684;2023-12-04T08:55:20;10.07;;;7.03;;
42754;SDS011;28407;51.830;5.684;2023-12-04T08:57:20;12.85;;;8.13;;
42754;SDS011;28407;51.830;5.684;2023-12-04T08:59:21;8.85;;;6.88;;
42754;SDS011;28407;51.830;5.684;2023-12-04T09:01:22;7.40;;;6.47;;
42754;SDS011;28407;51.830;5.684;2023-12-04T09:03:22;8.60;;;7.05;;
42754;SDS011;28407;51.830;5.684;2023-12-04T09:05:24;7.35;;;5.78;;
42754;SDS011;28407;51.830;5.684;2023-12-04T09:07:24;9.35;;;6.60;;
42754;SDS011;28407;51.830;5.684;2023-12-04T09:09:25;7.00;;;5.15;;
42754;SDS011;28407;51.830;5.684;2023-12-04T09:11:26;7.38;;;6.22;;
42754;SDS011;28407;51.830;5.684;2023-12-04T09:13:27;6.20;;;5.32;;
42754;SDS011;28407;51.830;5.684;2023-12-04T09:15:29;9.73;;;7.80;;
42754;SDS011;28407;51.830;5.684;2023-12-04T09:17:29;8.93;;;7.03;;
42754;SDS011;28407;51.830;5.684;2023-12-04T09:19:30;8.85;;;6.60;;
42754;SDS011;28407;51.830;5.684;2023-12-04T09:21:31;7.17;;;6.20;;
42754;SDS011;28407;51.830;5.684;2023-12-04T09:23:32;8.68;;;6.60;;
42754;SDS011;28407;51.830;5.684;2023-12-04T09:25:33;7.47;;;5.97;;
42754;SDS011;28407;51.830;5.684;2023-12-04T09:27:33;10.45;;;7.00;;
42754;SDS011;28407;51.830;5.684;2023-12-04T09:29:34;9.50;;;7.97;;
42754;SDS011;28407;51.830;5.684;2023-12-04T09:31:35;9.60;;;7.38;;
42754;SDS011;28407;51.830;5.684;2023-12-04T09:33:35;7.97;;;6.75;;
42754;SDS011;28407;51.830;5.684;2023-12-04T09:35:36;8.45;;;6.40;;
42754;SDS011;28407;51.830;5.684;2023-12-04T09:37:37;9.43;;;6.93;;
42754;SDS011;28407;51.830;5.684;2023-12-04T09:39:37;8.63;;;6.70;;
42754;SDS011;28407;51.830;5.684;2023-12-04T09:41:39;10.55;;;8.88;;
42754;SDS011;28407;51.830;5.684;2023-12-04T09:43:43;8.38;;;7.07;;
42754;SDS011;28407;51.830;5.684;2023-12-04T09:45:45;8.43;;;7.47;;
42754;SDS011;28407;51.830;5.684;2023-12-04T09:47:47;8.73;;;6.95;;
42754;SDS011;28407;51.830;5.684;2023-12-04T09:49:49;9.35;;;7.43;;
42754;SDS011;28407;51.830;5.684;2023-12-04T09:51:53;7.85;;;6.85;;
42754;SDS011;28407;51.830;5.684;2023-12-04T09:53:54;8.57;;;7.00;;
42754;SDS011;28407;51.830;5.684;2023-12-04T09:55:56;9.32;;;7.32;;
42754;SDS011;28407;51.830;5.684;2023-12-04T09:57:59;9.75;;;8.38;;
42754;SDS011;28407;51.830;5.684;2023-12-04T10:00:00;9.27;;;7.72;;
42754;SDS011;28407;51.830;5.684;2023-12-04T10:02:11;8.75;;;6.80;;
42754;SDS011;28407;51.830;5.684;2023-12-04T10:04:12;10.40;;;7.10;;
42754;SDS011;28407;51.830;5.684;2023-12-04T10:06:15;7.75;;;6.28;;
42754;SDS011;28407;51.830;5.684;2023-12-04T10:08:19;9.38;;;7.10;;
42754;SDS011;28407;51.830;5.684;2023-12-04T10:10:19;9.80;;;6.70;;
42754;SDS011;28407;51.830;5.684;2023-12-04T10:12:20;7.55;;;6.80;;
42754;SDS011;28407;51.830;5.684;2023-12-04T10:14:22;10.05;;;7.85;;
42754;SDS011;28407;51.830;5.684;2023-12-04T10:16:38;9.60;;;8.60;;
42754;SDS011;28407;51.830;5.684;2023-12-04T10:18:39;10.15;;;7.65;;
42754;SDS011;28407;51.830;5.684;2023-12-04T10:20:51;9.10;;;7.47;;
42754;SDS011;28407;51.830;5.684;2023-12-04T10:22:54;9.52;;;6.70;;
42754;SDS011;28407;51.830;5.684;2023-12-04T10:24:56;9.10;;;8.05;;
42754;SDS011;28407;51.830;5.684;2023-12-04T10:26:58;7.97;;;7.17;;
42754;SDS011;28407;51.830;5.684;2023-12-04T10:28:59;12.93;;;9.27;;
42754;SDS011;28407;51.830;5.684;2023-12-04T10:31:01;9.23;;;7.80;;
42754;SDS011;28407;51.830;5.684;2023-12-04T10:33:07;10.02;;;7.57;;
42754;SDS011;28407;51.830;5.684;2023-12-04T10:35:08;8.95;;;8.05;;
42754;SDS011;28407;51.830;5.684;2023-12-04T10:37:09;10.20;;;8.23;;
42754;SDS011;28407;51.830;5.684;2023-12-04T10:39:11;8.70;;;7.32;;
42754;SDS011;28407;51.830;5.684;2023-12-04T10:41:15;11.38;;;9.00;;
42754;SDS011;28407;51.830;5.684;2023-12-04T10:47:22;9.05;;;7.75;;
42754;SDS011;28407;51.830;5.684;2023-12-04T10:49:26;10.88;;;8.00;;
42754;SDS011;28407;51.830;5.684;2023-12-04T10:51:27;11.90;;;9.25;;
42754;SDS011;28407;51.830;5.684;2023-12-04T10:53:31;11.23;;;8.25;;
42754;SDS011;28407;51.830;5.684;2023-12-04T10:55:33;11.68;;;8.77;;
42754;SDS011;28407;51.830;5.684;2023-12-04T10:57:37;10.32;;;8.95;;
42754;SDS011;28407;51.830;5.684;2023-12-04T10:59:40;10.80;;;9.35;;
42754;SDS011;28407;51.830;5.684;2023-12-04T11:01:42;10.77;;;8.68;;
42754;SDS011;28407;51.830;5.684;2023-12-04T11:03:45;10.70;;;9.07;;
42754;SDS011;28407;51.830;5.684;2023-12-04T11:05:50;10.88;;;8.43;;
42754;SDS011;28407;51.830;5.684;2023-12-04T11:07:58;11.40;;;8.60;;
42754;SDS011;28407;51.830;5.684;2023-12-04T11:10:02;9.32;;;7.85;;
42754;SDS011;28407;51.830;5.684;2023-12-04T11:12:04;8.73;;;7.43;;
42754;SDS011;28407;51.830;5.684;2023-12-04T11:14:08;10.23;;;7.65;;
42754;SDS011;28407;51.830;5.684;2023-12-04T11:16:20;8.95;;;7.70;;
42754;SDS011;28407;51.830;5.684;2023-12-04T11:18:43;9.25;;;6.95;;
42754;SDS011;28407;51.830;5.684;2023-12-04T11:20:51;10.35;;;7.90;;
42754;SDS011;28407;51.830;5.684;2023-12-04T11:22:58;10.55;;;7.60;;
42754;SDS011;28407;51.830;5.684;2023-12-04T11:25:01;9.35;;;7.57;;
42754;SDS011;28407;51.830;5.684;2023-12-04T11:27:05;9.32;;;7.65;;
42754;SDS011;28407;51.830;5.684;2023-12-04T11:29:08;10.27;;;7.65;;
42754;SDS011;28407;51.830;5.684;2023-12-04T11:31:11;12.73;;;7.72;;
42754;SDS011;28407;51.830;5.684;2023-12-04T11:33:13;9.37;;;7.60;;
42754;SDS011;28407;51.830;5.684;2023-12-04T11:35:17;9.05;;;7.20;;
42754;SDS011;28407;51.830;5.684;2023-12-04T11:37:19;9.48;;;7.97;;
42754;SDS011;28407;51.830;5.684;2023-12-04T11:39:20;12.77;;;8.30;;
42754;SDS011;28407;51.830;5.684;2023-12-04T11:41:22;9.63;;;7.65;;
42754;SDS011;28407;51.830;5.684;2023-12-04T11:43:27;8.77;;;7.70;;
42754;SDS011;28407;51.830;5.684;2023-12-04T11:45:31;11.23;;;8.45;;
42754;SDS011;28407;51.830;5.684;2023-12-04T11:47:52;10.43;;;7.63;;
42754;SDS011;28407;51.830;5.684;2023-12-04T11:49:57;11.52;;;9.25;;
42754;SDS011;28407;51.830;5.684;2023-12-04T11:52:01;9.70;;;7.93;;
42754;SDS011;28407;51.830;5.684;2023-12-04T11:54:07;9.95;;;7.43;;
42754;SDS011;28407;51.830;5.684;2023-12-04T11:56:14;8.73;;;7.53;;
42754;SDS011;28407;51.830;5.684;2023-12-04T11:58:16;10.03;;;7.50;;
42754;SDS011;28407;51.830;5.684;2023-12-04T12:02:19;9.93;;;7.82;;
42754;SDS011;28407;51.830;5.684;2023-12-04T12:04:20;8.38;;;7.50;;
42754;SDS011;28407;51.830;5.684;2023-12-04T12:06:21;10.65;;;8.52;;
42754;SDS011;28407;51.830;5.684;2023-12-04T12:10:24;8.90;;;7.43;;
42754;SDS011;28407;51.830;5.684;2023-12-04T12:12:25;8.07;;;6.72;;
42754;SDS011;28407;51.830;5.684;2023-12-04T12:14:28;9.52;;;7.53;;
42754;SDS011;28407;51.830;5.684;2023-12-04T12:16:31;8.18;;;6.50;;
42754;SDS011;28407;51.830;5.684;2023-12-04T12:18:34;9.23;;;8.23;;
42754;SDS011;28407;51.830;5.684;2023-12-04T12:20:38;7.95;;;6.85;;
42754;SDS011;28407;51.830;5.684;2023-12-04T12:22:39;8.27;;;7.32;;